createdAt,value
2023-11-22T00:00:22.838Z,1
2023-11-22T00:03:22.878Z,1.05
2023-11-22T00:06:22.848Z,0.89
2023-11-22T00:09:22.824Z,1.24
2023-11-22T00:12:22.808Z,0.59
2023-11-22T00:15:22.857Z,0.62
2023-11-22T00:18:22.900Z,0.92
2023-11-22T00:21:22.844Z,1.07
2023-11-22T00:24:22.896Z,0.59
2023-11-22T00:27:22.831Z,0.34
2023-11-22T00:30:22.843Z,0.76
2023-11-22T00:33:22.829Z,0.32
2023-11-22T00:36:22.851Z,0.29
2023-11-22T00:39:22.807Z,0.96
2023-11-22T00:42:22.848Z,1.17
2023-11-22T00:45:22.933Z,1.13
2023-11-22T00:48:22.850Z,1.23
2023-11-22T00:51:22.916Z,1.04
2023-11-22T00:54:22.856Z,0.72
2023-11-22T00:57:22.880Z,0.88
2023-11-22T01:00:22.907Z,1.01
2023-11-22T01:03:23.018Z,1.27
2023-11-22T01:06:22.839Z,0.68
2023-11-22T01:09:22.940Z,1.04
2023-11-22T01:12:22.927Z,1.31
2023-11-22T01:15:22.896Z,0.93
2023-11-22T01:18:22.954Z,0.99
2023-11-22T01:21:22.891Z,0.64
2023-11-22T01:24:22.866Z,0.77
2023-11-22T01:27:22.888Z,1.29
2023-11-22T01:30:22.964Z,0.43
2023-11-22T01:33:23.251Z,0.53
2023-11-22T01:36:22.923Z,1.18
2023-11-22T01:39:22.855Z,1.09
2023-11-22T01:42:22.944Z,0.82
2023-11-22T01:45:22.898Z,0.71
2023-11-22T01:48:22.948Z,1.11
2023-11-22T01:51:22.907Z,0.95
2023-11-22T01:54:22.920Z,0.81
2023-11-22T01:57:22.903Z,0.36
2023-11-22T02:00:22.922Z,0.78
2023-11-22T02:03:23.209Z,1.39
2023-11-22T02:06:22.946Z,1.59
2023-11-22T02:09:22.989Z,0.84
2023-11-22T02:12:22.947Z,0.41
2023-11-22T02:15:22.937Z,0.66
2023-11-22T02:18:22.908Z,0.9
2023-11-22T02:21:22.918Z,0.95
2023-11-22T02:24:22.893Z,0.96
2023-11-22T02:27:22.932Z,0.95
2023-11-22T02:30:22.940Z,0.47
2023-11-22T02:33:23.307Z,1.13
2023-11-22T02:36:22.971Z,0.95
2023-11-22T02:39:23.251Z,1.25
2023-11-22T02:42:23.035Z,1.79
2023-11-22T02:45:23.104Z,1.32
2023-11-22T02:48:23.111Z,1.17
2023-11-22T02:51:23.122Z,1.42
2023-11-22T02:54:23.059Z,1.46
2023-11-22T02:57:23.144Z,1.43
2023-11-22T03:00:22.993Z,1.45
2023-11-22T03:03:23.030Z,1.4
2023-11-22T03:06:22.939Z,1.39
2023-11-22T03:09:22.958Z,1.64
2023-11-22T03:12:22.979Z,1.44
2023-11-22T03:15:23.040Z,1.8
2023-11-22T03:18:23.049Z,0.95
2023-11-22T03:21:23.002Z,0.69
2023-11-22T03:24:23.000Z,1.35
2023-11-22T03:27:22.945Z,1.72
2023-11-22T03:30:23.042Z,1.3
2023-11-22T03:33:23.096Z,0.88
2023-11-22T03:36:23.017Z,1.55
2023-11-22T03:39:22.995Z,1.21
2023-11-22T03:42:22.978Z,0.73
2023-11-22T03:45:23.006Z,0.83
2023-11-22T03:48:23.032Z,1.11
2023-11-22T03:51:23.040Z,0.85
2023-11-22T03:54:23.039Z,0.86
2023-11-22T03:57:23.028Z,1.14
2023-11-22T04:00:23.011Z,0.94
2023-11-22T04:03:23.484Z,0.82
2023-11-22T04:06:23.002Z,0.6
2023-11-22T04:09:23.078Z,1.3
2023-11-22T04:12:23.019Z,1.49
2023-11-22T04:15:23.041Z,1.24
2023-11-22T04:18:23.059Z,1.2
2023-11-22T04:21:23.003Z,0.9
2023-11-22T04:24:23.046Z,0.75
2023-11-22T04:27:23.084Z,1.01
2023-11-22T04:30:23.039Z,1.14
2023-11-22T04:33:23.143Z,1.12
2023-11-22T04:36:24.309Z,0.92
2023-11-22T04:39:23.069Z,1.2
2023-11-22T04:42:24.001Z,1
2023-11-22T04:45:23.051Z,0.54
2023-11-22T04:48:23.126Z,0.57
2023-11-22T04:51:23.046Z,0.94
2023-11-22T04:54:23.077Z,0.83
2023-11-22T04:57:23.100Z,0.67
2023-11-22T05:00:23.078Z,1.54
2023-11-22T05:03:23.161Z,1.3
2023-11-22T05:06:23.064Z,1.21
2023-11-22T05:09:23.130Z,1.02
2023-11-22T05:12:23.083Z,1.21
2023-11-22T05:15:23.062Z,1.22
2023-11-22T05:18:23.125Z,1.07
2023-11-22T05:21:23.099Z,0.7
2023-11-22T05:24:23.128Z,0.71
2023-11-22T05:27:23.080Z,0.79
2023-11-22T05:30:23.115Z,0.8
2023-11-22T05:33:23.163Z,1.09
2023-11-22T05:36:23.133Z,1.01
2023-11-22T05:39:23.107Z,0.91
2023-11-22T05:42:23.092Z,0.71
2023-11-22T05:45:23.113Z,0.85
2023-11-22T05:48:23.143Z,0.61
2023-11-22T05:51:23.243Z,0.29
2023-11-22T05:54:23.108Z,0.33
2023-11-22T05:57:23.154Z,0.3
2023-11-22T06:00:23.161Z,0.82
2023-11-22T06:03:23.159Z,0.75
2023-11-22T06:06:23.113Z,0.67
2023-11-22T06:09:23.228Z,0.74
2023-11-22T06:12:23.152Z,0.68
2023-11-22T06:15:23.183Z,0.98
2023-11-22T06:18:23.197Z,0.69
2023-11-22T06:21:23.119Z,0.73
2023-11-22T06:24:23.133Z,1.06
2023-11-22T06:27:23.183Z,0.93
2023-11-22T06:30:23.196Z,1.6
2023-11-22T06:33:23.212Z,1.24
2023-11-22T06:36:23.174Z,1.27
2023-11-22T06:39:23.152Z,0.9
2023-11-22T06:42:23.169Z,0.93
2023-11-22T06:45:23.235Z,1.19
2023-11-22T06:48:23.209Z,1.49
2023-11-22T06:51:23.220Z,0.98
2023-11-22T06:54:23.163Z,1.08
2023-11-22T06:57:23.189Z,0.88
2023-11-22T07:00:23.169Z,0.98
2023-11-22T07:03:23.272Z,1.01
2023-11-22T07:06:23.173Z,1.09
2023-11-22T07:09:23.232Z,0.62
2023-11-22T07:12:23.176Z,0.82
2023-11-22T07:15:23.190Z,0.65
2023-11-22T07:18:23.182Z,0.58
2023-11-22T07:21:23.244Z,0.66
2023-11-22T07:24:23.191Z,0.68
2023-11-22T07:27:23.234Z,0.37
2023-11-22T07:30:23.210Z,0.43
2023-11-22T07:33:23.275Z,0.69
2023-11-22T07:36:23.180Z,0.61
2023-11-22T07:39:23.222Z,0.61
2023-11-22T07:42:23.282Z,0.69
2023-11-22T07:45:23.404Z,0.74
2023-11-22T07:48:23.205Z,0.79
2023-11-22T07:51:23.240Z,0.83
2023-11-22T07:54:23.188Z,0.91
2023-11-22T07:57:23.265Z,0.72
2023-11-22T08:00:23.239Z,0.7
2023-11-22T08:03:23.394Z,1.13
2023-11-22T08:06:23.307Z,1.28
2023-11-22T08:09:23.263Z,1.24
2023-11-22T08:12:23.220Z,1.11
2023-11-22T08:15:23.244Z,1.06
2023-11-22T08:18:23.325Z,1.02
2023-11-22T08:21:23.232Z,1.19
2023-11-22T08:24:23.291Z,0.77
2023-11-22T08:27:23.285Z,0.88
2023-11-22T08:30:23.290Z,1.04
2023-11-22T08:33:23.346Z,0.86
2023-11-22T08:36:23.241Z,0.65
2023-11-22T08:39:23.238Z,0.43
2023-11-22T08:42:23.218Z,0.22
2023-11-22T08:45:23.282Z,0.83
2023-11-22T08:48:23.362Z,0.53
2023-11-22T08:51:23.658Z,0.41
2023-11-22T08:54:23.272Z,0.29
2023-11-22T08:57:23.264Z,0.26
2023-11-22T09:00:23.234Z,0.39
2023-11-22T09:03:23.425Z,0.68
2023-11-22T09:06:23.314Z,0.72
2023-11-22T09:09:25.792Z,0.69
2023-11-22T09:12:23.319Z,0.71
2023-11-22T09:15:23.280Z,0.63
2023-11-22T09:18:23.301Z,0.45
2023-11-22T09:21:23.288Z,0.49
2023-11-22T09:24:23.288Z,0.49
2023-11-22T09:27:23.348Z,0.61
2023-11-22T09:30:23.394Z,1.05
2023-11-22T09:33:23.296Z,0.46
2023-11-22T09:36:23.316Z,0.08
2023-11-22T09:39:23.472Z,0.5
2023-11-22T09:42:23.372Z,0.68
2023-11-22T09:45:23.308Z,0.13
2023-11-22T09:48:23.386Z,0.25
2023-11-22T09:51:23.363Z,0.25
2023-11-22T09:54:23.370Z,0.66
2023-11-22T09:57:23.327Z,0.46
2023-11-22T10:00:23.325Z,0.5
2023-11-22T10:03:23.375Z,0.4
2023-11-22T10:06:23.337Z,0.41
2023-11-22T10:09:23.340Z,0.46
2023-11-22T10:12:23.306Z,0.61
2023-11-22T10:15:23.369Z,0.36
2023-11-22T10:18:23.598Z,0.44
2023-11-22T10:21:23.403Z,0.31
2023-11-22T10:24:23.342Z,0.22
2023-11-22T10:27:23.415Z,0.15
2023-11-22T10:30:23.351Z,0.38
2023-11-22T10:33:23.369Z,0.28
2023-11-22T10:36:23.354Z,1.16
2023-11-22T10:39:23.392Z,1.24
2023-11-22T10:42:23.389Z,0.96
2023-11-22T10:45:23.493Z,0.48
2023-11-22T10:48:23.377Z,0.63
2023-11-22T10:51:23.407Z,0.73
2023-11-22T10:54:23.368Z,0.28
2023-11-22T10:57:23.335Z,0.15
2023-11-22T11:00:23.425Z,0.24
2023-11-22T11:03:23.722Z,0.36
2023-11-22T11:06:23.404Z,0.31
2023-11-22T11:09:23.383Z,0.41
2023-11-22T11:12:23.391Z,0.36
2023-11-22T11:15:23.517Z,0.31
2023-11-22T11:18:23.556Z,0.37
2023-11-22T11:21:23.395Z,0.11
2023-11-22T11:24:26.165Z,0.14
2023-11-22T11:27:23.376Z,0.3
2023-11-22T11:30:23.411Z,0.21
2023-11-22T11:33:23.781Z,0.34
2023-11-22T11:36:23.418Z,0.17
2023-11-22T11:39:23.426Z,0.3
2023-11-22T11:42:25.377Z,0.72
2023-11-22T11:45:23.460Z,0.95
2023-11-22T11:48:23.508Z,1.08
2023-11-22T11:51:23.447Z,0.33
2023-11-22T11:54:23.479Z,0.09
2023-11-22T11:57:23.407Z,0.19
2023-11-22T12:00:23.407Z,0.56
2023-11-22T12:03:23.524Z,0.59
2023-11-22T12:06:23.504Z,0.34
2023-11-22T12:09:23.404Z,0.57
2023-11-22T12:12:23.425Z,0.62
2023-11-22T12:15:23.459Z,0.72
2023-11-22T12:18:23.528Z,0.7
2023-11-22T12:21:23.494Z,0.84
2023-11-22T12:24:23.442Z,0.75
2023-11-22T12:27:23.437Z,0.79
2023-11-22T12:30:23.555Z,0.99
2023-11-22T12:33:23.494Z,1.02
2023-11-22T12:36:23.506Z,1.33
2023-11-22T12:39:23.517Z,0.73
2023-11-22T12:42:23.568Z,0.84
2023-11-22T12:45:23.492Z,0.57
2023-11-22T12:48:23.599Z,0.23
2023-11-22T12:51:23.461Z,0.49
2023-11-22T12:54:23.501Z,0.39
2023-11-22T12:57:23.562Z,0.44
2023-11-22T13:00:23.483Z,0.64
2023-11-22T13:03:23.527Z,0.43
2023-11-22T13:06:23.646Z,0.67
2023-11-22T13:09:23.620Z,0.64
2023-11-22T13:12:23.480Z,0.83
2023-11-22T13:15:23.525Z,0.72
2023-11-22T13:18:23.484Z,1.06
2023-11-22T13:21:23.518Z,1.11
2023-11-22T13:24:23.496Z,0.8
2023-11-22T13:27:23.610Z,0.81
2023-11-22T13:30:23.499Z,0.55
2023-11-22T13:33:23.602Z,0.32
2023-11-22T13:36:23.496Z,0.14
2023-11-22T13:39:23.534Z,0.14
2023-11-22T13:42:23.550Z,0.49
2023-11-22T13:45:23.586Z,0.2
2023-11-22T13:48:23.655Z,0.49
2023-11-22T13:51:23.591Z,0.36
2023-11-22T13:54:23.528Z,0.42
2023-11-22T13:57:23.527Z,0.53
2023-11-22T14:00:23.558Z,0.46
2023-11-22T14:03:23.609Z,0.39
2023-11-22T14:06:23.560Z,0.18
2023-11-22T14:09:23.517Z,0.03
2023-11-22T14:12:23.551Z,0.14
2023-11-22T14:15:23.484Z,0.23
2023-11-22T14:18:23.600Z,0.18
2023-11-22T14:21:23.571Z,0.31
2023-11-22T14:24:23.583Z,0.2
2023-11-22T14:27:23.575Z,0.37
2023-11-22T14:30:23.580Z,0.53
2023-11-22T14:33:23.699Z,0.52
2023-11-22T14:36:23.599Z,0.59
2023-11-22T14:39:23.593Z,0.26
2023-11-22T14:42:23.563Z,0.45
2023-11-22T14:45:23.998Z,0.3
2023-11-22T14:48:23.574Z,0.04
2023-11-22T14:51:23.547Z,0.04
2023-11-22T14:54:23.579Z,0.07
2023-11-22T14:57:23.539Z,0.04
2023-11-22T15:00:23.629Z,0.21
2023-11-22T15:03:23.648Z,0.17
2023-11-22T15:06:23.582Z,0.06
2023-11-22T15:09:23.585Z,0.13
2023-11-22T15:12:23.647Z,0.4
2023-11-22T15:15:23.637Z,0.36
2023-11-22T15:18:23.636Z,0.33
2023-11-22T15:21:23.597Z,0.39
2023-11-22T15:24:23.651Z,0.34
2023-11-22T15:27:23.619Z,0.39
2023-11-22T15:30:23.631Z,0.65
2023-11-22T15:33:23.680Z,0.38
2023-11-22T15:36:23.622Z,0.58
2023-11-22T15:39:23.655Z,0.24
2023-11-22T15:42:23.590Z,0.3
2023-11-22T15:45:23.615Z,0.4
2023-11-22T15:48:23.656Z,0.59
2023-11-22T15:51:23.651Z,0.31
2023-11-22T15:54:23.633Z,0.36
2023-11-22T15:57:23.599Z,0.19
2023-11-22T16:00:23.623Z,0.02
2023-11-22T16:03:23.747Z,0.48
2023-11-22T16:06:23.695Z,0.11
2023-11-22T16:09:23.708Z,0.15
2023-11-22T16:12:23.982Z,0.22
2023-11-22T16:15:23.651Z,0.46
2023-11-22T16:18:23.786Z,0.28
2023-11-22T16:21:23.626Z,0.24
2023-11-22T16:24:23.700Z,0.35
2023-11-22T16:27:23.686Z,0.41
2023-11-22T16:30:23.623Z,0.29
2023-11-22T16:33:23.774Z,0.26
2023-11-22T16:36:23.746Z,0.28
2023-11-22T16:39:27.271Z,0.59
2023-11-22T16:42:23.642Z,0.33
2023-11-22T16:45:23.698Z,0.05
2023-11-22T16:48:23.728Z,0.17
2023-11-22T16:51:23.659Z,0.39
2023-11-22T16:54:23.685Z,0.08
2023-11-22T16:57:23.687Z,0.3
2023-11-22T17:00:23.722Z,0.63
2023-11-22T17:03:24.616Z,0.52
2023-11-22T17:06:23.724Z,0.19
2023-11-22T17:09:23.726Z,0.16
2023-11-22T17:12:23.674Z,0.15
2023-11-22T17:15:23.699Z,0.28
2023-11-22T17:18:23.743Z,0.04
2023-11-22T17:21:23.765Z,0.12
2023-11-22T17:24:23.752Z,0.26
2023-11-22T17:27:26.482Z,0.42
2023-11-22T17:30:23.727Z,0.24
2023-11-22T17:33:23.758Z,0.42
2023-11-22T17:36:23.785Z,0.36
2023-11-22T17:39:23.775Z,0.56
2023-11-22T17:42:23.776Z,0.44
2023-11-22T17:45:23.755Z,0.44
2023-11-22T17:48:23.909Z,0.48
2023-11-22T17:51:23.750Z,0.63
2023-11-22T17:54:25.210Z,0.43
2023-11-22T17:57:23.738Z,0.46
2023-11-22T18:00:23.788Z,0.57
2023-11-22T18:03:23.842Z,0.7
2023-11-22T18:06:23.738Z,0.73
2023-11-22T18:09:23.695Z,0.44
2023-11-22T18:12:23.784Z,0.45
2023-11-22T18:15:23.731Z,0.46
2023-11-22T18:18:23.793Z,0.61
2023-11-22T18:21:23.972Z,0.34
2023-11-22T18:24:23.829Z,0.5
2023-11-22T18:27:23.730Z,0.44
2023-11-22T18:30:23.759Z,0.46
2023-11-22T18:33:26.105Z,0.42
2023-11-22T18:36:23.780Z,0.6
2023-11-22T18:39:26.789Z,0.37
2023-11-22T18:42:23.745Z,0.24
2023-11-22T18:45:23.764Z,0.28
2023-11-22T18:48:23.928Z,0.29
2023-11-22T18:51:26.616Z,0.33
2023-11-22T18:54:25.833Z,0.31
2023-11-22T18:57:23.773Z,0.32
2023-11-22T19:00:23.794Z,0.18
2023-11-22T19:03:23.824Z,0.16
2023-11-22T19:06:23.813Z,0.26
2023-11-22T19:09:23.869Z,0.28
2023-11-22T19:12:23.801Z,0.36
2023-11-22T19:15:23.844Z,0.28
2023-11-22T19:18:23.868Z,0.11
2023-11-22T19:21:23.849Z,0.08
2023-11-22T19:24:23.824Z,0.08
2023-11-22T19:27:23.839Z,0.29
2023-11-22T19:30:23.800Z,0.43
2023-11-22T19:33:23.852Z,0.34
2023-11-22T19:36:26.272Z,0.21
2023-11-22T19:39:23.824Z,0.19
2023-11-22T19:42:23.811Z,0.4
2023-11-22T19:45:23.858Z,0.47
2023-11-22T19:48:23.804Z,0.15
2023-11-22T19:51:23.854Z,0.17
2023-11-22T19:54:23.848Z,0.11
2023-11-22T19:57:26.904Z,0.04
2023-11-22T20:00:23.863Z,0.27
2023-11-22T20:03:23.913Z,0.76
2023-11-22T20:06:23.913Z,0.28
2023-11-22T20:09:23.795Z,0.25
2023-11-22T20:12:23.951Z,0.15
2023-11-22T20:15:24.227Z,0.04
2023-11-22T20:18:24.366Z,0.37
2023-11-22T20:21:23.883Z,0.14
2023-11-22T20:24:23.868Z,0.26
2023-11-22T20:27:23.851Z,0.56
2023-11-22T20:30:24.135Z,0.18
2023-11-22T20:33:23.930Z,0.18
2023-11-22T20:36:23.890Z,0.29
2023-11-22T20:39:23.837Z,0.09
2023-11-22T20:42:23.901Z,0.09
2023-11-22T20:45:23.887Z,0.27
2023-11-22T20:48:23.942Z,0.16
2023-11-22T20:51:23.833Z,0.22
2023-11-22T20:54:24.237Z,0.26
2023-11-22T20:57:23.916Z,0.1
2023-11-22T21:00:23.872Z,0.09
2023-11-22T21:03:24.014Z,0.11
2023-11-22T21:06:23.870Z,0.02
2023-11-22T21:09:23.912Z,0.08
2023-11-22T21:12:25.867Z,0.15
2023-11-22T21:15:23.896Z,0.12
2023-11-22T21:18:24.009Z,0.26
2023-11-22T21:21:26.958Z,0.12
2023-11-22T21:24:23.920Z,0.11
2023-11-22T21:27:23.890Z,0.32
2023-11-22T21:30:23.898Z,0.42
2023-11-22T21:33:24.237Z,0.11
2023-11-22T21:36:23.922Z,0.01
2023-11-22T21:39:23.929Z,0.03
2023-11-22T21:42:23.895Z,0.11
2023-11-22T21:45:23.883Z,0.03
2023-11-22T21:48:23.972Z,0.14
2023-11-22T21:51:23.907Z,0.31
2023-11-22T21:54:23.925Z,0.19
2023-11-22T21:57:23.931Z,0.26
2023-11-22T22:00:23.891Z,0.24
2023-11-22T22:03:23.980Z,0.38
2023-11-22T22:06:23.929Z,0.23
2023-11-22T22:09:24.287Z,0.13
2023-11-22T22:12:23.993Z,0
2023-11-22T22:15:23.962Z,0.17
2023-11-22T22:18:24.067Z,0.23
2023-11-22T22:21:24.010Z,0.16
2023-11-22T22:24:23.963Z,0.01
2023-11-22T22:27:23.982Z,0.21
2023-11-22T22:30:24.353Z,0.43
2023-11-22T22:33:23.990Z,0.22
2023-11-22T22:36:24.203Z,0.44
2023-11-22T22:39:23.963Z,0.21
2023-11-22T22:42:23.986Z,0.19
2023-11-22T22:45:24.022Z,0.11
2023-11-22T22:48:24.043Z,0.02
2023-11-22T22:51:24.003Z,0.04
2023-11-22T22:54:23.972Z,0.12
2023-11-22T22:57:23.974Z,0.09
2023-11-22T23:00:24.047Z,0.1
2023-11-22T23:03:24.020Z,0.12
2023-11-22T23:06:23.987Z,0.13
2023-11-22T23:09:24.027Z,0.31
2023-11-22T23:12:24.018Z,0.35
2023-11-22T23:15:23.983Z,0.14
2023-11-22T23:18:24.040Z,0.11
2023-11-22T23:21:24.020Z,0.11
2023-11-22T23:24:24.004Z,0.22
2023-11-22T23:27:24.052Z,0.23
2023-11-22T23:30:23.976Z,0.33
2023-11-22T23:33:24.166Z,0.23
2023-11-22T23:36:23.990Z,0.36
2023-11-22T23:39:23.995Z,0.41
2023-11-22T23:42:24.390Z,0.42
2023-11-22T23:45:23.998Z,0.47
2023-11-22T23:48:24.105Z,0.09
2023-11-22T23:51:24.045Z,0.17
2023-11-22T23:54:24.054Z,0.32
2023-11-22T23:57:24.078Z,0.36
